Time;durP1;ratioP1;P1;durP2;ratioP2;P2;SDS_P1;SDS_P2;PMS_P1;PMS_P2;Temp;Humidity;BMP_temperature;BMP_pressure;BME280_temperature;BME280_humidity;BME280_pressure;Samples;Min_cycle;Max_cycle;Signal;HPM_P1;HPM_P2
2023/07/22 00:01:01;;;;;;;14.80;9.73;;;13.60;99.90;;;;;;5022160;28;20177;-80
2023/07/22 00:03:27;;;;;;;14.20;10.00;;;13.60;99.90;;;;;;5022465;28;20178;-80
2023/07/22 00:06:06;;;;;;;14.93;10.35;;;13.50;99.90;;;;;;5022019;28;20179;-80
2023/07/22 00:08:33;;;;;;;12.85;9.60;;;13.40;99.90;;;;;;5021572;28;20187;-80
2023/07/22 00:10:59;;;;;;;11.82;9.07;;;13.40;99.90;;;;;;5021601;28;20742;-80
2023/07/22 00:13:28;;;;;;;15.43;10.10;;;13.50;99.90;;;;;;5021997;28;20242;-80
2023/07/22 00:15:55;;;;;;;13.40;9.85;;;13.50;99.90;;;;;;5039626;28;20713;-81
2023/07/22 00:18:21;;;;;;;13.32;9.50;;;13.50;99.90;;;;;;5022512;28;20181;-80
2023/07/22 00:20:47;;;;;;;13.98;9.45;;;13.50;99.90;;;;;;5021944;28;20183;-80
2023/07/22 00:23:15;;;;;;;13.70;10.07;;;13.60;99.90;;;;;;5039001;28;20217;-81
2023/07/22 00:25:41;;;;;;;16.00;10.90;;;13.60;99.90;;;;;;5020963;28;20265;-80
2023/07/22 00:28:07;;;;;;;13.50;9.93;;;13.50;99.90;;;;;;5021802;28;20560;-80
2023/07/22 00:30:34;;;;;;;12.63;9.20;;;13.40;99.90;;;;;;5021441;28;20179;-80
2023/07/22 00:33:00;;;;;;;20.15;10.38;;;13.40;99.90;;;;;;5021214;28;20202;-80
2023/07/22 00:35:26;;;;;;;15.13;9.68;;;13.30;99.90;;;;;;5021589;28;20183;-80
2023/07/22 00:37:52;;;;;;;14.13;9.57;;;13.30;99.90;;;;;;5020777;28;20237;-80
2023/07/22 00:40:18;;;;;;;15.55;9.95;;;13.20;99.90;;;;;;5038947;28;20175;-80
2023/07/22 00:42:44;;;;;;;12.52;9.57;;;13.20;99.90;;;;;;5020652;28;20234;-80
2023/07/22 00:45:10;;;;;;;15.23;9.48;;;13.20;99.90;;;;;;5038757;28;20233;-80
2023/07/22 00:47:36;;;;;;;12.45;9.75;;;13.10;99.90;;;;;;5020816;28;20182;-80
2023/07/22 00:50:07;;;;;;;15.07;9.45;;;13.10;99.90;;;;;;5038678;28;20209;-80
2023/07/22 00:52:34;;;;;;;17.40;10.07;;;13.00;99.90;;;;;;5038855;28;20618;-80
2023/07/22 00:54:59;;;;;;;15.77;9.73;;;12.90;99.90;;;;;;5020877;28;20182;-80
2023/07/22 00:57:25;;;;;;;13.27;10.07;;;12.90;99.90;;;;;;5038574;28;20172;-80
2023/07/22 00:59:51;;;;;;;14.15;9.43;;;12.80;99.90;;;;;;5020995;28;20171;-80
2023/07/22 01:02:19;;;;;;;14.18;9.30;;;12.80;99.90;;;;;;5020537;28;20199;-80
2023/07/22 01:04:45;;;;;;;16.25;9.63;;;12.70;99.90;;;;;;5038854;28;20671;-80
2023/07/22 01:07:11;;;;;;;15.50;10.23;;;12.70;99.90;;;;;;5038524;28;20156;-80
2023/07/22 01:09:41;;;;;;;15.05;10.02;;;12.60;99.90;;;;;;5039094;28;20238;-79
2023/07/22 01:12:11;;;;;;;12.45;9.90;;;12.60;99.90;;;;;;5021429;28;20238;-80
2023/07/22 01:14:38;;;;;;;15.75;10.55;;;12.60;99.90;;;;;;5021109;28;20621;-80
2023/07/22 01:17:06;;;;;;;14.38;9.73;;;12.60;99.90;;;;;;5021326;28;20265;-80
2023/07/22 01:19:32;;;;;;;14.45;10.60;;;12.60;99.90;;;;;;5021373;28;20243;-80
2023/07/22 01:22:07;;;;;;;13.07;9.68;;;12.70;99.90;;;;;;5021562;28;20220;-80
2023/07/22 01:24:34;;;;;;;15.27;10.38;;;12.70;99.90;;;;;;5038749;28;20177;-79
2023/07/22 01:27:00;;;;;;;14.55;10.30;;;12.80;99.90;;;;;;5039430;28;20209;-79
2023/07/22 01:29:26;;;;;;;14.63;10.80;;;12.80;99.90;;;;;;5039631;28;20175;-80
2023/07/22 01:31:54;;;;;;;17.08;10.13;;;12.80;99.90;;;;;;5021140;28;20209;-80
2023/07/22 01:34:21;;;;;;;13.38;9.77;;;12.90;99.90;;;;;;5022042;28;20175;-80
2023/07/22 01:36:47;;;;;;;15.10;10.10;;;12.90;99.90;;;;;;5022473;28;20183;-80
2023/07/22 01:39:14;;;;;;;11.35;9.05;;;12.80;99.90;;;;;;5020889;28;20183;-79
2023/07/22 01:41:40;;;;;;;12.80;9.32;;;12.80;99.90;;;;;;5035507;28;20204;-79
2023/07/22 01:44:06;;;;;;;16.45;10.15;;;12.70;99.90;;;;;;5018370;28;20580;-78
2023/07/22 01:46:31;;;;;;;13.02;9.57;;;12.60;99.90;;;;;;5036231;28;20262;-78
2023/07/22 01:48:57;;;;;;;12.80;8.82;;;12.50;99.90;;;;;;5019273;28;20549;-79
2023/07/22 01:51:23;;;;;;;12.93;8.90;;;12.50;99.90;;;;;;5019013;28;20549;-79
2023/07/22 01:53:49;;;;;;;12.52;9.23;;;12.60;99.90;;;;;;5019534;28;20700;-79
2023/07/22 01:56:16;;;;;;;13.98;8.65;;;12.60;99.90;;;;;;5036321;28;20625;-79
2023/07/22 01:58:42;;;;;;;14.45;9.27;;;12.60;99.90;;;;;;5019221;28;20263;-79
2023/07/22 02:01:08;;;;;;;14.35;10.10;;;12.60;99.90;;;;;;5018937;28;20222;-79
2023/07/22 02:03:33;;;;;;;14.55;9.25;;;12.50;99.90;;;;;;5019183;28;20274;-79
2023/07/22 02:06:05;;;;;;;12.48;9.48;;;12.50;99.90;;;;;;5036861;28;20180;-79
2023/07/22 02:08:31;;;;;;;10.93;8.73;;;12.50;99.90;;;;;;5037813;28;20247;-79
2023/07/22 02:11:06;;;;;;;14.10;9.73;;;12.40;99.90;;;;;;5036489;28;20195;-79
2023/07/22 02:13:32;;;;;;;12.80;9.13;;;12.50;99.90;;;;;;5016880;28;20690;-79
2023/07/22 02:15:58;;;;;;;15.80;9.73;;;12.50;99.90;;;;;;5017368;28;20178;-79
2023/07/22 02:18:24;;;;;;;12.38;9.30;;;12.40;99.90;;;;;;5034212;28;20221;-79
2023/07/22 02:20:50;;;;;;;13.68;9.57;;;12.30;99.90;;;;;;5034905;28;20643;-79
2023/07/22 02:23:15;;;;;;;14.57;10.40;;;12.40;99.90;;;;;;5035171;28;20254;-79
2023/07/22 02:25:41;;;;;;;16.50;10.52;;;12.30;99.90;;;;;;5016763;28;20175;-79
2023/07/22 02:28:07;;;;;;;14.98;10.48;;;12.30;99.90;;;;;;5035816;28;20539;-79
2023/07/22 02:30:39;;;;;;;14.20;9.82;;;12.20;99.90;;;;;;5035282;28;20540;-78
2023/07/22 02:33:05;;;;;;;13.57;9.60;;;12.20;99.90;;;;;;5035497;28;20210;-79
2023/07/22 02:35:31;;;;;;;13.95;10.13;;;12.20;99.90;;;;;;5018219;28;20179;-79
2023/07/22 02:37:57;;;;;;;15.13;10.63;;;12.20;99.90;;;;;;5036365;28;20237;-79
2023/07/22 02:40:22;;;;;;;15.98;10.57;;;12.10;99.90;;;;;;5018830;28;20226;-79
2023/07/22 02:42:48;;;;;;;13.93;10.23;;;12.10;99.90;;;;;;5018648;28;20566;-79
2023/07/22 02:45:14;;;;;;;14.25;9.93;;;12.10;99.90;;;;;;5018663;28;20219;-79
2023/07/22 02:47:40;;;;;;;15.38;10.52;;;12.10;99.90;;;;;;5019347;28;20183;-79
2023/07/22 02:50:07;;;;;;;15.88;10.70;;;12.10;99.90;;;;;;5019156;28;20237;-79
2023/07/22 02:52:32;;;;;;;14.63;10.02;;;12.10;99.90;;;;;;5037062;28;20211;-79
2023/07/22 02:55:14;;;;;;;14.13;10.43;;;12.10;99.90;;;;;;5020099;28;20635;-79
2023/07/22 02:57:42;;;;;;;13.35;8.93;;;12.10;99.90;;;;;;5019575;28;20631;-79
2023/07/22 03:00:08;;;;;;;15.45;10.27;;;12.30;99.90;;;;;;5019967;28;20225;-79
2023/07/22 03:02:35;;;;;;;14.32;9.60;;;12.30;99.90;;;;;;5019820;28;20207;-79
2023/07/22 03:05:02;;;;;;;23.88;10.88;;;12.30;99.90;;;;;;5020173;28;20179;-79
2023/07/22 03:07:28;;;;;;;12.65;9.68;;;12.30;99.90;;;;;;5019938;28;20183;-79
2023/07/22 03:09:54;;;;;;;14.38;9.90;;;12.40;99.90;;;;;;5037289;28;20263;-79
2023/07/22 03:12:20;;;;;;;15.90;10.32;;;12.40;99.90;;;;;;5037775;28;20215;-79
2023/07/22 03:14:45;;;;;;;17.15;11.30;;;12.40;99.90;;;;;;5037590;28;20232;-79
2023/07/22 03:17:14;;;;;;;15.60;10.35;;;12.40;99.90;;;;;;5037724;28;20195;-78
2023/07/22 03:19:40;;;;;;;16.85;10.35;;;12.40;99.90;;;;;;5019730;28;20182;-79
2023/07/22 03:22:06;;;;;;;14.20;10.68;;;12.40;99.90;;;;;;5020470;28;20290;-79
2023/07/22 03:24:31;;;;;;;14.45;10.88;;;12.40;99.90;;;;;;5019611;28;20215;-79
2023/07/22 03:26:57;;;;;;;18.67;11.65;;;12.30;99.90;;;;;;5037848;28;20202;-79
2023/07/22 03:29:24;;;;;;;18.10;11.10;;;12.40;99.90;;;;;;5021968;28;20721;-79
2023/07/22 03:31:50;;;;;;;19.85;10.90;;;12.40;99.90;;;;;;5023126;28;20203;-79
2023/07/22 03:34:16;;;;;;;14.50;11.43;;;12.40;99.90;;;;;;5023545;28;20199;-79
2023/07/22 03:36:41;;;;;;;14.13;10.73;;;12.40;99.90;;;;;;5041425;28;20218;-79
2023/07/22 03:39:08;;;;;;;15.57;10.65;;;12.40;99.90;;;;;;5023341;28;20183;-79
2023/07/22 03:41:34;;;;;;;13.18;9.80;;;12.40;99.90;;;;;;5040533;28;20253;-79
2023/07/22 03:44:00;;;;;;;15.00;10.70;;;12.40;99.90;;;;;;5023473;28;20179;-79
2023/07/22 03:46:25;;;;;;;15.18;10.80;;;12.50;99.90;;;;;;5023333;28;20183;-79
2023/07/22 03:48:51;;;;;;;16.73;11.15;;;12.50;99.90;;;;;;5023375;28;20233;-79
2023/07/22 03:51:17;;;;;;;15.63;10.98;;;12.50;99.90;;;;;;5041044;28;20732;-79
2023/07/22 03:53:43;;;;;;;18.27;11.65;;;12.50;99.90;;;;;;5039853;28;20793;-79
2023/07/22 03:56:08;;;;;;;15.90;11.73;;;12.50;99.90;;;;;;5022551;28;20175;-79
2023/07/22 03:58:34;;;;;;;15.82;11.38;;;12.40;99.90;;;;;;5023406;28;20171;-79
2023/07/22 04:01:00;;;;;;;14.95;11.13;;;12.40;99.90;;;;;;5022772;28;20234;-79
2023/07/22 04:03:26;;;;;;;15.98;11.02;;;12.50;99.90;;;;;;5040228;28;20206;-79
2023/07/22 04:05:58;;;;;;;16.08;11.55;;;12.60;99.90;;;;;;5022815;28;20175;-79
2023/07/22 04:08:23;;;;;;;17.48;10.25;;;12.60;99.90;;;;;;5040169;28;20237;-79
2023/07/22 04:10:56;;;;;;;16.08;10.57;;;12.70;99.90;;;;;;5022932;28;20179;-79
2023/07/22 04:13:24;;;;;;;16.25;10.45;;;12.80;99.90;;;;;;5022274;28;20214;-79
2023/07/22 04:15:50;;;;;;;18.70;11.43;;;12.90;99.90;;;;;;5022616;28;20179;-79
2023/07/22 04:18:17;;;;;;;15.13;10.32;;;12.90;99.90;;;;;;5040585;28;20171;-79
2023/07/22 04:20:43;;;;;;;17.10;10.85;;;13.00;99.90;;;;;;5037061;28;20195;-79
2023/07/22 04:23:09;;;;;;;14.70;10.52;;;13.00;99.90;;;;;;5019055;28;20789;-79
2023/07/22 04:25:45;;;;;;;14.75;11.00;;;13.00;99.90;;;;;;5036558;28;20200;-79
2023/07/22 04:28:11;;;;;;;13.70;9.82;;;13.00;99.90;;;;;;5018991;28;20639;-78
2023/07/22 04:30:37;;;;;;;16.83;10.88;;;13.00;99.90;;;;;;5037380;28;20202;-79
2023/07/22 04:33:05;;;;;;;14.65;10.80;;;13.00;99.90;;;;;;5036348;28;20205;-78
2023/07/22 04:35:38;;;;;;;14.88;11.15;;;13.00;99.90;;;;;;5018378;28;20179;-78
2023/07/22 04:38:03;;;;;;;14.50;10.20;;;13.00;99.90;;;;;;5018791;28;20183;-78
2023/07/22 04:40:30;;;;;;;17.83;10.65;;;13.10;99.90;;;;;;5018477;28;20175;-79
2023/07/22 04:42:56;;;;;;;14.32;10.30;;;13.10;99.90;;;;;;5021506;28;20289;-79
2023/07/22 04:45:25;;;;;;;16.23;10.07;;;13.20;99.90;;;;;;5038264;28;20172;-79
2023/07/22 04:47:51;;;;;;;15.35;10.60;;;13.30;99.90;;;;;;5037737;28;20179;-79
2023/07/22 04:50:17;;;;;;;18.27;11.02;;;13.30;99.90;;;;;;5018981;28;20670;-77
2023/07/22 04:52:47;;;;;;;13.88;10.57;;;13.40;99.90;;;;;;5019571;28;20241;-79
2023/07/22 04:55:13;;;;;;;16.92;10.88;;;13.40;99.90;;;;;;5019634;28;20182;-79
2023/07/22 04:57:41;;;;;;;16.17;9.93;;;13.50;99.90;;;;;;5020628;28;20258;-80
2023/07/22 05:00:16;;;;;;;14.75;10.00;;;13.50;99.90;;;;;;5019892;28;20167;-80
2023/07/22 05:02:45;;;;;;;13.95;10.32;;;13.60;99.90;;;;;;5019598;28;20234;-80
2023/07/22 05:05:12;;;;;;;18.63;10.02;;;13.60;99.90;;;;;;5037369;28;20194;-79
2023/07/22 05:07:38;;;;;;;15.25;10.88;;;13.60;99.90;;;;;;5019319;28;20194;-79
2023/07/22 05:10:04;;;;;;;16.48;10.77;;;13.60;99.90;;;;;;5018725;28;20187;-79
2023/07/22 05:12:30;;;;;;;14.68;10.10;;;13.60;99.90;;;;;;5036384;28;20691;-79
2023/07/22 05:14:56;;;;;;;15.73;10.13;;;13.60;99.90;;;;;;5018945;28;20179;-79
2023/07/22 05:17:22;;;;;;;16.48;10.35;;;13.60;99.90;;;;;;5018003;28;20214;-78
2023/07/22 05:19:48;;;;;;;16.45;9.88;;;13.60;99.90;;;;;;5017687;28;20179;-78
2023/07/22 05:22:14;;;;;;;15.05;11.18;;;13.70;99.90;;;;;;5017445;28;20226;-78
2023/07/22 05:24:40;;;;;;;12.52;9.55;;;13.80;99.90;;;;;;5038161;28;20182;-79
2023/07/22 05:27:06;;;;;;;14.48;9.82;;;13.80;99.90;;;;;;5020165;28;20187;-79
2023/07/22 05:29:32;;;;;;;16.15;10.40;;;13.90;99.90;;;;;;5021333;28;20179;-80
2023/07/22 05:31:57;;;;;;;12.95;9.50;;;14.00;99.90;;;;;;5021009;28;20282;-80
2023/07/22 05:34:23;;;;;;;13.68;9.07;;;14.10;99.90;;;;;;5020993;28;20697;-80
2023/07/22 05:36:49;;;;;;;14.50;9.20;;;14.20;99.90;;;;;;5038277;28;20175;-80
2023/07/22 05:39:17;;;;;;;13.30;9.63;;;14.30;99.90;;;;;;5020461;28;20278;-81
2023/07/22 05:41:43;;;;;;;15.27;9.20;;;14.40;99.90;;;;;;5037951;28;20197;-80
2023/07/22 05:44:09;;;;;;;14.38;9.52;;;14.50;99.90;;;;;;5017994;28;20269;-80
2023/07/22 05:46:34;;;;;;;12.60;9.70;;;14.60;99.90;;;;;;5018361;28;20654;-80
2023/07/22 05:49:00;;;;;;;16.05;10.70;;;14.60;99.90;;;;;;5017804;28;20190;-80
2023/07/22 05:51:26;;;;;;;11.88;9.07;;;14.60;99.90;;;;;;5035648;28;20241;-80
2023/07/22 05:53:52;;;;;;;12.40;9.10;;;14.60;99.90;;;;;;5018436;28;20273;-81
2023/07/22 05:56:17;;;;;;;13.23;9.18;;;14.60;99.90;;;;;;5034776;28;20647;-81
2023/07/22 05:58:44;;;;;;;14.05;8.98;;;14.70;99.90;;;;;;5017378;28;20171;-80
2023/07/22 06:01:11;;;;;;;12.07;8.93;;;14.70;99.90;;;;;;5018904;28;20257;-81
2023/07/22 06:03:37;;;;;;;14.75;8.52;;;14.80;99.90;;;;;;5035522;28;20576;-81
2023/07/22 06:06:04;;;;;;;15.93;9.65;;;14.90;99.90;;;;;;5017817;28;20201;-81
2023/07/22 06:08:29;;;;;;;12.52;8.73;;;15.00;99.90;;;;;;5018575;28;20223;-81
2023/07/22 06:10:56;;;;;;;13.82;8.85;;;15.10;99.90;;;;;;5017687;28;20257;-80
2023/07/22 06:13:22;;;;;;;10.90;8.52;;;15.20;99.90;;;;;;5035835;28;20222;-80
2023/07/22 06:15:48;;;;;;;14.40;8.18;;;15.30;99.90;;;;;;5017810;28;20174;-80
2023/07/22 06:18:13;;;;;;;13.18;8.05;;;15.40;99.90;;;;;;5017487;28;20171;-80
2023/07/22 06:20:39;;;;;;;12.45;8.82;;;15.50;99.90;;;;;;5035002;28;20177;-80
2023/07/22 06:23:06;;;;;;;14.73;8.98;;;15.60;99.90;;;;;;5017450;28;20203;-81
2023/07/22 06:25:31;;;;;;;11.80;7.95;;;15.70;99.90;;;;;;5017116;28;20179;-80
2023/07/22 06:27:57;;;;;;;14.70;9.45;;;15.80;99.90;;;;;;5035137;28;20178;-80
2023/07/22 06:30:23;;;;;;;12.27;8.65;;;15.90;99.90;;;;;;5034689;28;20229;-80
2023/07/22 06:32:49;;;;;;;11.95;7.97;;;15.90;99.90;;;;;;5016849;28;20218;-80
2023/07/22 06:35:14;;;;;;;13.57;8.45;;;16.00;99.90;;;;;;5034609;28;20171;-80
2023/07/22 06:37:40;;;;;;;13.70;8.38;;;16.10;99.90;;;;;;5017108;28;20183;-80
2023/07/22 06:40:07;;;;;;;12.60;8.40;;;16.20;99.90;;;;;;5035084;28;20202;-80
2023/07/22 06:42:33;;;;;;;15.75;8.63;;;16.20;99.90;;;;;;5017008;28;20199;-80
2023/07/22 06:44:58;;;;;;;13.02;7.97;;;16.30;94.70;;;;;;5018525;28;20186;-80
2023/07/22 06:47:24;;;;;;;14.35;8.25;;;16.30;99.90;;;;;;5017716;28;20171;-80
2023/07/22 06:49:50;;;;;;;11.73;7.97;;;16.40;98.80;;;;;;5016914;28;20183;-79
2023/07/22 06:52:16;;;;;;;13.32;7.18;;;16.50;74.80;;;;;;5034034;28;20209;-78
2023/07/22 06:54:42;;;;;;;11.52;8.00;;;16.50;93.00;;;;;;5016308;28;20176;-79
2023/07/22 06:57:08;;;;;;;10.35;7.30;;;16.60;35.40;;;;;;5016425;28;20176;-77
2023/07/22 06:59:34;;;;;;;10.00;7.65;;;16.70;97.10;;;;;;5016415;28;20183;-78
2023/07/22 07:02:01;;;;;;;10.15;7.68;;;16.80;5.50;;;;;;5033577;28;20668;-78
2023/07/22 07:04:26;;;;;;;12.30;8.23;;;16.90;1.00;;;;;;5035970;28;20156;-78
2023/07/22 07:06:52;;;;;;;10.55;7.60;;;17.00;1.00;;;;;;5020102;28;20198;-77
2023/07/22 07:09:18;;;;;;;11.60;8.00;;;17.20;1.00;;;;;;5019745;28;20187;-77
2023/07/22 07:11:44;;;;;;;9.57;7.13;;;17.30;1.00;;;;;;5019650;28;20191;-78
2023/07/22 07:14:10;;;;;;;13.50;7.40;;;17.40;1.00;;;;;;5020115;28;20234;-78
2023/07/22 07:16:36;;;;;;;11.32;8.55;;;17.50;1.00;;;;;;5019960;28;20202;-78
2023/07/22 07:19:02;;;;;;;10.98;7.28;;;17.50;1.00;;;;;;5020040;28;20179;-78
2023/07/22 07:21:28;;;;;;;11.55;7.60;;;17.60;1.00;;;;;;5019947;28;20203;-78
2023/07/22 07:23:54;;;;;;;10.20;7.07;;;17.80;1.00;;;;;;5037566;28;20262;-77
2023/07/22 07:26:21;;;;;;;11.60;7.28;;;17.80;1.00;;;;;;5019650;28;20179;-77
2023/07/22 07:28:49;;;;;;;9.55;7.70;;;18.00;1.00;;;;;;5019633;28;20175;-78
2023/07/22 07:31:14;;;;;;;10.57;7.45;;;18.20;1.00;;;;;;5019498;28;20194;-77
2023/07/22 07:33:40;;;;;;;11.05;7.68;;;18.20;1.00;;;;;;5037191;28;20209;-78
2023/07/22 07:36:06;;;;;;;10.43;7.30;;;18.20;1.00;;;;;;5019347;28;20550;-78
2023/07/22 07:38:32;;;;;;;13.05;7.32;;;18.20;1.00;;;;;;5019446;28;20185;-77
2023/07/22 07:41:00;;;;;;;12.65;7.55;;;18.20;1.00;;;;;;5036887;28;20242;-79
2023/07/22 07:43:26;;;;;;;13.05;7.93;;;18.20;1.00;;;;;;5019051;28;20207;-78
2023/07/22 07:46:12;;;;;;;10.63;7.45;;;18.30;1.00;;;;;;5018919;28;20190;-78
2023/07/22 07:48:38;;;;;;;10.38;7.15;;;18.50;1.00;;;;;;5019247;28;20179;-77
2023/07/22 07:51:03;;;;;;;12.23;7.07;;;18.50;1.00;;;;;;5019325;28;20183;-77
2023/07/22 07:53:29;;;;;;;11.80;7.50;;;18.50;99.90;;;;;;5019499;28;20207;-78
2023/07/22 07:55:55;;;;;;;12.13;7.15;;;18.50;99.90;;;;;;5019103;28;20182;-77
2023/07/22 07:58:20;;;;;;;11.35;7.40;;;18.60;1.00;;;;;;5019383;28;20174;-77
2023/07/22 08:00:46;;;;;;;11.13;7.53;;;18.60;99.90;;;;;;5019264;28;20180;-78
2023/07/22 08:03:12;;;;;;;11.43;7.50;;;18.70;99.90;;;;;;5037151;28;20202;-78
2023/07/22 08:05:37;;;;;;;10.82;7.22;;;18.80;99.90;;;;;;5019294;28;20183;-78
2023/07/22 08:08:03;;;;;;;12.65;7.80;;;18.80;99.90;;;;;;5019145;28;20183;-77
2023/07/22 08:10:29;;;;;;;14.23;9.00;;;18.90;1.00;;;;;;5018912;28;20183;-77
2023/07/22 08:12:55;;;;;;;14.35;8.40;;;18.90;1.00;;;;;;5018884;28;20219;-78
2023/07/22 08:15:21;;;;;;;11.93;8.13;;;18.90;1.00;;;;;;5036023;28;20171;-78
2023/07/22 08:17:46;;;;;;;11.43;8.20;;;19.00;99.90;;;;;;5018981;28;20230;-78
2023/07/22 08:20:12;;;;;;;11.85;8.23;;;19.00;1.00;;;;;;5019262;28;20186;-77
2023/07/22 08:22:38;;;;;;;12.45;8.80;;;19.10;1.00;;;;;;5019504;28;20238;-77
2023/07/22 08:25:04;;;;;;;13.73;8.45;;;19.00;99.90;;;;;;5019748;28;20175;-77
2023/07/22 08:27:30;;;;;;;11.55;8.43;;;19.00;99.90;;;;;;5037514;28;20167;-77
2023/07/22 08:29:55;;;;;;;12.98;9.13;;;19.10;99.90;;;;;;5036666;28;20179;-77
2023/07/22 08:32:21;;;;;;;13.93;8.32;;;19.20;1.00;;;;;;5018168;28;20207;-77
2023/07/22 08:34:47;;;;;;;11.13;8.30;;;19.30;1.00;;;;;;5019170;28;20175;-77
2023/07/22 08:37:13;;;;;;;14.02;8.98;;;19.70;99.90;;;;;;5019401;28;20522;-76
2023/07/22 08:39:38;;;;;;;11.68;8.07;;;20.10;1.00;;;;;;5018491;28;20262;-77
2023/07/22 08:42:05;;;;;;;10.55;7.75;;;20.30;1.00;;;;;;5018039;28;20218;-77
2023/07/22 08:44:35;;;;;;;12.20;7.32;;;20.30;1.00;;;;;;5018588;28;20175;-78
2023/07/22 08:47:06;;;;;;;11.57;8.10;;;20.60;1.00;;;;;;5036024;28;20159;-76
2023/07/22 08:49:32;;;;;;;11.60;7.60;;;20.90;1.00;;;;;;5035880;28;20607;-77
2023/07/22 08:52:00;;;;;;;12.65;7.95;;;20.70;99.90;;;;;;5035707;28;20566;-78
2023/07/22 08:54:26;;;;;;;9.07;7.00;;;20.90;99.60;;;;;;5018982;28;20198;-78
2023/07/22 08:56:52;;;;;;;8.82;6.97;;;21.10;74.40;;;;;;5018810;28;20182;-78
2023/07/22 08:59:18;;;;;;;11.95;6.82;;;21.40;99.90;;;;;;5020294;28;20542;-78
2023/07/22 09:01:45;;;;;;;15.40;7.72;;;21.70;99.90;;;;;;5037455;28;20195;-78
2023/07/22 09:04:11;;;;;;;10.32;6.85;;;21.80;99.90;;;;;;5019061;28;20232;-78
2023/07/22 09:06:37;;;;;;;9.30;6.45;;;21.80;99.90;;;;;;5019565;28;20262;-78
2023/07/22 09:09:07;;;;;;;7.90;5.72;;;21.50;99.90;;;;;;5036794;28;20281;-78
2023/07/22 09:11:34;;;;;;;11.18;7.75;;;21.20;99.90;;;;;;5019363;28;20199;-78
2023/07/22 09:14:01;;;;;;;10.07;7.03;;;21.00;99.90;;;;;;5036268;28;20642;-77
2023/07/22 09:16:28;;;;;;;9.15;7.30;;;20.70;99.90;;;;;;5017393;28;20277;-77
2023/07/22 09:19:00;;;;;;;11.45;8.05;;;20.70;99.90;;;;;;5034932;28;20167;-77
2023/07/22 09:21:27;;;;;;;10.57;6.85;;;20.60;99.90;;;;;;5017402;28;20286;-77
2023/07/22 09:23:54;;;;;;;11.30;7.95;;;20.70;99.90;;;;;;5017026;28;20187;-77
2023/07/22 09:26:20;;;;;;;11.07;7.85;;;20.70;99.90;;;;;;5034061;28;20186;-76
2023/07/22 09:28:58;;;;;;;10.73;6.82;;;21.00;99.90;;;;;;5016659;28;20233;-76
2023/07/22 09:31:26;;;;;;;10.95;7.35;;;21.30;99.90;;;;;;5016857;28;20559;-77
2023/07/22 09:33:56;;;;;;;9.05;7.07;;;21.30;99.90;;;;;;5016737;28;20210;-76
2023/07/22 09:36:21;;;;;;;10.85;6.43;;;21.50;99.90;;;;;;5034359;28;20258;-77
2023/07/22 09:39:03;;;;;;;8.63;6.43;;;21.50;99.90;;;;;;5016528;28;20271;-77
2023/07/22 09:41:30;;;;;;;10.02;6.47;;;21.40;99.90;;;;;;5016215;28;20190;-78
2023/07/22 09:43:56;;;;;;;10.75;6.32;;;21.40;99.90;;;;;;5016522;28;20241;-78
2023/07/22 09:46:33;;;;;;;8.70;5.63;;;21.40;99.90;;;;;;5034567;28;20179;-77
2023/07/22 09:49:04;;;;;;;8.63;6.22;;;21.30;99.90;;;;;;5016931;28;20221;-75
2023/07/22 09:51:34;;;;;;;8.43;6.05;;;20.90;99.90;;;;;;5034243;28;20190;-76
2023/07/22 09:54:02;;;;;;;9.43;6.13;;;20.50;99.90;;;;;;5016398;28;20199;-75
2023/07/22 09:56:28;;;;;;;10.45;6.30;;;20.40;99.90;;;;;;5016015;28;20178;-75
2023/07/22 09:58:55;;;;;;;9.40;6.30;;;20.30;99.90;;;;;;5016864;28;20242;-78
2023/07/22 10:01:25;;;;;;;8.70;6.28;;;20.10;99.90;;;;;;5016317;28;20225;-77
2023/07/22 10:03:56;;;;;;;9.02;6.25;;;20.00;99.90;;;;;;5034216;28;20242;-78
2023/07/22 10:06:28;;;;;;;13.27;6.57;;;20.10;99.90;;;;;;5016263;28;20656;-77
2023/07/22 10:09:02;;;;;;;7.32;5.53;;;20.20;99.90;;;;;;5016164;28;20281;-77
2023/07/22 10:11:28;;;;;;;7.40;5.88;;;20.20;99.90;;;;;;5015817;28;20210;-77
2023/07/22 10:13:55;;;;;;;9.93;6.82;;;20.40;99.90;;;;;;5016037;28;20237;-77
2023/07/22 10:16:22;;;;;;;10.68;6.40;;;20.50;99.90;;;;;;5033906;28;20171;-77
2023/07/22 10:18:48;;;;;;;8.07;5.72;;;20.70;99.90;;;;;;5015867;28;20264;-77
2023/07/22 10:21:15;;;;;;;8.55;6.38;;;21.00;99.90;;;;;;5033819;28;20210;-77
2023/07/22 10:23:42;;;;;;;7.68;5.70;;;21.10;99.90;;;;;;5016220;28;20250;-77
2023/07/22 10:26:13;;;;;;;7.43;5.38;;;21.10;99.90;;;;;;5033382;28;20175;-77
2023/07/22 10:28:40;;;;;;;7.82;5.55;;;21.00;99.90;;;;;;5016084;28;20175;-77
2023/07/22 10:31:07;;;;;;;10.07;5.60;;;21.00;99.90;;;;;;5033575;28;20226;-77
2023/07/22 10:33:34;;;;;;;9.45;5.93;;;20.90;99.90;;;;;;5015881;28;20207;-77
2023/07/22 10:36:05;;;;;;;9.27;6.03;;;20.90;99.90;;;;;;5037678;28;20225;-78
2023/07/22 10:38:32;;;;;;;10.15;6.07;;;20.90;99.90;;;;;;5018679;28;20178;-78
2023/07/22 10:40:58;;;;;;;10.32;5.53;;;21.00;99.90;;;;;;5018111;28;20175;-77
2023/07/22 10:43:34;;;;;;;9.52;5.93;;;21.20;99.90;;;;;;5016699;28;20179;-78
2023/07/22 10:46:09;;;;;;;10.75;6.18;;;21.40;99.90;;;;;;5017134;28;20350;-77
2023/07/22 10:48:38;;;;;;;8.55;5.35;;;21.70;99.90;;;;;;5017989;28;20186;-77
2023/07/22 10:51:12;;;;;;;7.80;5.53;;;21.90;99.90;;;;;;5017551;28;20273;-77
2023/07/22 10:53:46;;;;;;;9.77;5.90;;;22.10;99.90;;;;;;5020017;28;20203;-78
2023/07/22 10:56:19;;;;;;;9.40;5.63;;;22.10;99.90;;;;;;5019982;28;20170;-79
2023/07/22 10:58:45;;;;;;;8.20;6.10;;;22.20;99.90;;;;;;5033915;28;20176;-75
2023/07/22 11:01:32;;;;;;;7.93;5.13;;;22.10;99.90;;;;;;5015624;28;20291;-75
2023/07/22 11:04:31;;;;;;;7.22;5.65;;;21.80;99.90;;;;;;5015482;28;20175;-75
2023/07/22 11:07:04;;;;;;;7.45;4.70;;;21.60;99.90;;;;;;5015691;28;20183;-78
2023/07/22 11:09:30;;;;;;;8.77;5.70;;;21.50;99.90;;;;;;5015687;28;20183;-76
2023/07/22 11:12:00;;;;;;;11.95;5.88;;;21.30;99.90;;;;;;5015313;28;20310;-75
2023/07/22 11:14:33;;;;;;;7.63;4.40;;;21.20;99.90;;;;;;5015938;28;20190;-75
2023/07/22 11:17:08;;;;;;;6.63;5.28;;;21.20;99.90;;;;;;5033537;28;20166;-76
2023/07/22 11:19:34;;;;;;;8.85;5.43;;;21.20;99.90;;;;;;5033551;28;20151;-76
2023/07/22 11:22:00;;;;;;;7.22;5.07;;;21.60;99.90;;;;;;5015467;28;20199;-76
2023/07/22 11:24:26;;;;;;;10.18;5.32;;;22.10;99.90;;;;;;5015270;28;20175;-76
2023/07/22 11:26:53;;;;;;;10.38;5.72;;;21.80;99.90;;;;;;5032915;28;20179;-76
2023/07/22 11:29:20;;;;;;;7.55;5.32;;;21.80;99.90;;;;;;5015339;28;20183;-77
2023/07/22 11:31:47;;;;;;;7.68;4.70;;;21.90;99.90;;;;;;5015180;28;20554;-76
2023/07/22 11:34:18;;;;;;;9.55;5.90;;;22.00;99.90;;;;;;5015286;28;20260;-76
2023/07/22 11:36:45;;;;;;;6.55;4.88;;;22.30;99.90;;;;;;5033186;28;20665;-76
2023/07/22 11:39:15;;;;;;;8.15;4.97;;;22.50;99.90;;;;;;5032901;28;20184;-76
2023/07/22 11:41:42;;;;;;;8.77;4.60;;;22.60;99.90;;;;;;5015136;28;20195;-77
2023/07/22 11:44:13;;;;;;;8.80;5.18;;;22.50;99.90;;;;;;5015226;28;20190;-77
2023/07/22 11:46:51;;;;;;;6.20;4.68;;;22.50;99.90;;;;;;5032796;28;20173;-77
2023/07/22 11:49:34;;;;;;;7.43;4.70;;;22.40;99.90;;;;;;5033260;28;20175;-78
2023/07/22 11:52:07;;;;;;;6.70;4.40;;;22.50;99.90;;;;;;5019036;28;20282;-77
2023/07/22 11:54:35;;;;;;;8.40;5.63;;;22.70;99.90;;;;;;5018671;28;20229;-77
2023/07/22 11:57:14;;;;;;;6.22;4.60;;;22.70;99.90;;;;;;5018215;28;20176;-78
2023/07/22 11:59:47;;;;;;;7.63;4.93;;;22.40;99.90;;;;;;5018614;28;20175;-77
2023/07/22 12:02:14;;;;;;;7.82;5.13;;;22.40;99.90;;;;;;5018695;28;20195;-77
2023/07/22 12:04:40;;;;;;;7.90;4.82;;;22.40;99.90;;;;;;5018504;28;20207;-78
2023/07/22 12:07:06;;;;;;;6.03;4.35;;;22.70;99.90;;;;;;5036347;28;20218;-78
2023/07/22 12:09:32;;;;;;;5.65;4.70;;;22.70;99.90;;;;;;5019973;28;20742;-77
2023/07/22 12:12:00;;;;;;;6.63;4.90;;;22.50;99.90;;;;;;5017972;28;20686;-78
2023/07/22 12:14:37;;;;;;;8.07;4.65;;;22.20;99.90;;;;;;5018261;28;20663;-78
2023/07/22 12:17:02;;;;;;;8.75;4.40;;;22.50;99.90;;;;;;5018280;28;20246;-77
2023/07/22 12:19:30;;;;;;;7.22;4.35;;;22.70;99.90;;;;;;5035910;28;20174;-77
2023/07/22 12:21:56;;;;;;;6.68;4.60;;;23.10;99.90;;;;;;5035896;28;20638;-77
2023/07/22 12:24:21;;;;;;;6.53;4.10;;;23.30;99.90;;;;;;5018068;28;20242;-77
2023/07/22 12:26:47;;;;;;;6.35;4.35;;;23.50;99.90;;;;;;5018111;28;20233;-77
2023/07/22 12:29:13;;;;;;;5.63;4.45;;;23.40;99.90;;;;;;5018072;28;20178;-77
2023/07/22 12:31:38;;;;;;;7.72;4.28;;;23.20;99.90;;;;;;5017799;28;20199;-76
2023/07/22 12:34:04;;;;;;;10.25;5.53;;;22.90;99.90;;;;;;5035575;28;20706;-76
2023/07/22 12:36:30;;;;;;;7.53;4.00;;;23.00;99.90;;;;;;5017733;28;20662;-77
2023/07/22 12:38:56;;;;;;;7.03;4.55;;;23.30;99.90;;;;;;5017614;28;20187;-76